createdAt,value
2023-02-15T00:03:08.013Z,29.70
2023-02-15T00:07:09.748Z,30.45
2023-02-15T00:11:16.570Z,30.65
2023-02-15T00:15:18.286Z,32.05
2023-02-15T00:19:21.884Z,28.67
2023-02-15T00:23:23.749Z,30.02
2023-02-15T00:27:25.519Z,29.25
2023-02-15T00:31:31.779Z,30.92
2023-02-15T00:35:33.592Z,30.33
2023-02-15T00:39:35.279Z,34.17
2023-02-15T00:43:37.653Z,33.17
2023-02-15T00:47:39.347Z,34.67
2023-02-15T00:51:41.112Z,36.10
2023-02-15T00:55:43.123Z,33.63
2023-02-15T00:59:44.813Z,26.85
2023-02-15T01:03:47.613Z,26.17
2023-02-15T01:07:49.294Z,26.12
2023-02-15T01:11:51.020Z,28.42
2023-02-15T01:15:56.510Z,29.37
2023-02-15T01:19:58.248Z,30.65
2023-02-15T01:24:00.058Z,30.48
2023-02-15T01:28:02.835Z,30.23
2023-02-15T01:32:04.798Z,29.80
2023-02-15T01:36:06.935Z,35.50
2023-02-15T01:40:13.639Z,33.28
2023-02-15T01:44:53.182Z,35.08
2023-02-15T01:49:12.196Z,35.67
2023-02-15T01:53:27.946Z,36.50
2023-02-15T01:57:29.918Z,35.03
2023-02-15T02:01:31.998Z,32.50
2023-02-15T02:05:33.975Z,34.35
2023-02-15T02:09:37.290Z,37.00
2023-02-15T02:13:40.763Z,34.22
2023-02-15T02:17:54.683Z,39.38
2023-02-15T02:21:59.525Z,37.42
2023-02-15T02:26:25.610Z,38.42
2023-02-15T02:30:41.228Z,37.67
2023-02-15T02:35:04.784Z,41.08
2023-02-15T02:39:18.160Z,37.25
2023-02-15T02:43:31.530Z,34.50
2023-02-15T02:47:39.359Z,36.65
2023-02-15T02:51:41.016Z,35.63
2023-02-15T02:56:02.470Z,37.55
2023-02-15T03:00:09.352Z,32.53
2023-02-15T03:04:26.227Z,34.55
2023-02-15T03:08:36.878Z,35.33
2023-02-15T03:12:41.032Z,32.40
2023-02-15T03:16:46.034Z,35.75
2023-02-15T03:20:48.842Z,40.40
2023-02-15T03:25:03.674Z,36.00
2023-02-15T03:29:07.813Z,40.03
2023-02-15T03:33:10.893Z,42.05
2023-02-15T03:37:21.134Z,36.90
2023-02-15T03:41:26.599Z,37.15
2023-02-15T03:45:31.970Z,44.53
2023-02-15T03:49:53.270Z,38.45
2023-02-15T03:53:56.572Z,37.58
2023-02-15T03:58:16.771Z,35.85
2023-02-15T04:02:31.939Z,36.55
2023-02-15T04:06:33.672Z,38.15
2023-02-15T04:10:53.426Z,36.63
2023-02-15T04:15:13.868Z,34.17
2023-02-15T04:19:34.073Z,37.45
2023-02-15T04:23:54.470Z,35.70
2023-02-15T04:27:56.203Z,34.85
2023-02-15T04:31:59.838Z,37.38
2023-02-15T04:36:01.827Z,37.30
2023-02-15T04:40:04.926Z,35.25
2023-02-15T04:44:06.590Z,39.17
2023-02-15T04:48:08.274Z,39.03
2023-02-15T04:52:10.082Z,36.53
2023-02-15T04:56:11.851Z,40.30
2023-02-15T05:00:14.199Z,39.53
2023-02-15T05:04:16.038Z,42.33
2023-02-15T05:08:18.081Z,38.92
2023-02-15T05:12:19.757Z,41.42
2023-02-15T05:16:21.493Z,37.60
2023-02-15T05:20:23.242Z,40.35
2023-02-15T05:24:43.625Z,42.38
2023-02-15T05:28:45.320Z,39.83
2023-02-15T05:32:47.113Z,41.72
2023-02-15T05:36:48.812Z,42.97
2023-02-15T05:40:52.208Z,40.60
2023-02-15T05:44:53.915Z,41.90
2023-02-15T05:48:55.600Z,42.80
2023-02-15T05:52:57.534Z,41.78
2023-02-15T05:56:59.270Z,44.35
2023-02-15T06:01:07.656Z,41.42
2023-02-15T06:05:10.124Z,40.70
2023-02-15T06:09:13.534Z,39.58
2023-02-15T06:13:15.220Z,38.63
2023-02-15T06:17:17.709Z,52.58
2023-02-15T06:21:19.687Z,47.17
2023-02-15T06:25:21.378Z,36.67
2023-02-15T06:29:23.058Z,35.88
2023-02-15T06:33:24.816Z,37.90
2023-02-15T06:37:26.696Z,40.00
2023-02-15T06:41:28.348Z,41.55
2023-02-15T06:45:30.171Z,42.20
2023-02-15T06:49:32.129Z,39.63
2023-02-15T06:53:33.995Z,37.03
2023-02-15T06:57:35.865Z,35.15
2023-02-15T07:01:37.970Z,37.40
2023-02-15T07:07:29.509Z,31.02
2023-02-15T07:11:50.272Z,35.22
2023-02-15T07:15:52.214Z,35.30
2023-02-15T07:19:53.859Z,34.53
2023-02-15T07:23:58.506Z,33.17
2023-02-15T07:28:02.104Z,38.75
2023-02-15T07:32:03.824Z,37.45
2023-02-15T07:36:06.277Z,35.63
2023-02-15T07:40:08.269Z,33.08
2023-02-15T07:44:14.541Z,35.45
2023-02-15T07:48:16.125Z,31.03
2023-02-15T07:52:17.773Z,32.50
2023-02-15T07:56:19.465Z,36.28
2023-02-15T08:00:25.642Z,35.40
2023-02-15T08:04:27.331Z,34.37
2023-02-15T08:08:31.837Z,31.62
2023-02-15T08:12:33.474Z,34.75
2023-02-15T08:17:05.735Z,33.22
2023-02-15T08:21:07.502Z,36.25
2023-02-15T08:25:09.085Z,29.42
2023-02-15T08:29:11.386Z,28.02
2023-02-15T08:33:13.044Z,27.73
2023-02-15T08:37:14.829Z,27.40
2023-02-15T08:41:22.876Z,29.40
2023-02-15T08:45:26.342Z,25.58
2023-02-15T08:49:28.257Z,28.33
2023-02-15T08:53:29.925Z,26.20
2023-02-15T08:57:31.572Z,23.02
2023-02-15T09:01:34.955Z,25.17
2023-02-15T09:05:36.643Z,26.10
2023-02-15T09:09:38.288Z,27.17
2023-02-15T09:13:40.923Z,24.52
2023-02-15T09:17:42.536Z,26.00
2023-02-15T09:21:44.202Z,25.90
2023-02-15T09:25:45.824Z,25.52
2023-02-15T09:29:47.518Z,23.92
2023-02-15T09:33:49.914Z,23.67
2023-02-15T09:37:51.533Z,24.10
2023-02-15T09:41:54.438Z,27.08
2023-02-15T09:46:13.248Z,21.60
2023-02-15T09:50:53.368Z,20.48
2023-02-15T09:55:20.057Z,19.98
2023-02-15T09:59:30.796Z,21.40
2023-02-15T10:03:35.554Z,18.33
2023-02-15T10:08:07.809Z,18.00
2023-02-15T10:12:48.622Z,20.12
2023-02-15T10:17:05.691Z,19.23
2023-02-15T10:21:14.198Z,17.98
2023-02-15T10:25:47.484Z,22.45
2023-02-15T10:30:36.879Z,17.92
2023-02-15T10:34:40.993Z,18.42
2023-02-15T10:39:23.163Z,19.65
2023-02-15T10:43:33.935Z,16.75
2023-02-15T10:47:48.801Z,17.90
2023-02-15T10:51:56.401Z,17.30
2023-02-15T10:56:24.746Z,17.48
2023-02-15T11:00:48.102Z,21.50
2023-02-15T11:05:13.794Z,22.25
2023-02-15T11:09:19.033Z,19.25
2023-02-15T11:13:24.889Z,18.08
2023-02-15T11:17:39.009Z,19.42
2023-02-15T11:21:55.760Z,16.30
2023-02-15T11:26:00.554Z,19.67
2023-02-15T11:30:18.592Z,20.40
2023-02-15T11:34:52.547Z,18.15
2023-02-15T11:39:02.881Z,18.05
2023-02-15T11:43:38.101Z,21.10
2023-02-15T11:47:39.784Z,22.33
2023-02-15T11:51:41.423Z,19.33
2023-02-15T11:55:45.522Z,16.83
2023-02-15T12:00:10.540Z,22.10
2023-02-15T12:04:26.722Z,21.45
2023-02-15T12:08:43.096Z,18.40
2023-02-15T12:12:44.880Z,20.05
2023-02-15T12:16:52.374Z,20.05
2023-02-15T12:20:59.101Z,18.92
2023-02-15T12:25:04.677Z,17.45
2023-02-15T12:29:17.399Z,17.30
2023-02-15T12:33:46.425Z,18.87
2023-02-15T12:38:04.109Z,17.27
2023-02-15T12:42:16.375Z,16.25
2023-02-15T12:46:26.662Z,17.67
2023-02-15T12:50:35.485Z,17.77
2023-02-15T12:54:42.614Z,20.62
2023-02-15T12:58:46.764Z,17.02
2023-02-15T13:02:55.231Z,20.80
2023-02-15T13:07:02.044Z,18.90
2023-02-15T13:11:12.494Z,19.73
2023-02-15T13:15:31.053Z,18.95
2023-02-15T13:19:38.102Z,16.00
2023-02-15T13:23:46.453Z,22.83
2023-02-15T13:27:53.905Z,20.48
2023-02-15T13:31:58.479Z,18.52
2023-02-15T13:36:10.486Z,18.73
2023-02-15T13:40:30.988Z,16.60
2023-02-15T13:44:57.822Z,16.27
2023-02-15T13:49:37.306Z,15.63
2023-02-15T13:53:56.851Z,19.87
2023-02-15T13:58:14.261Z,17.60
2023-02-15T14:02:39.661Z,15.98
2023-02-15T14:07:06.916Z,16.95
2023-02-15T14:11:33.221Z,17.80
2023-02-15T14:15:45.541Z,15.23
2023-02-15T14:19:55.644Z,16.05
2023-02-15T14:24:09.012Z,15.15
2023-02-15T14:28:33.403Z,14.68
2023-02-15T14:32:46.318Z,17.70
2023-02-15T14:36:48.869Z,15.88
2023-02-15T14:41:10.496Z,17.42
2023-02-15T14:45:33.844Z,16.65
2023-02-15T14:49:40.891Z,21.20
2023-02-15T14:53:43.626Z,19.25
2023-02-15T14:57:59.222Z,18.23
2023-02-15T15:02:09.766Z,14.73
2023-02-15T15:06:32.088Z,16.62
2023-02-15T15:10:35.641Z,19.23
2023-02-15T15:14:40.208Z,19.83
2023-02-15T15:18:47.606Z,15.60
2023-02-15T15:22:50.860Z,19.83
2023-02-15T15:27:30.817Z,16.45
2023-02-15T15:31:54.145Z,16.30
2023-02-15T15:36:31.734Z,18.80
2023-02-15T15:40:57.938Z,17.08
2023-02-15T15:45:36.579Z,16.58
2023-02-15T15:49:39.547Z,18.65
2023-02-15T15:53:45.137Z,18.08
2023-02-15T15:57:50.812Z,18.25
2023-02-15T16:01:52.811Z,18.73
2023-02-15T16:05:56.266Z,17.15
2023-02-15T16:09:59.370Z,15.82
2023-02-15T16:14:01.187Z,19.83
2023-02-15T16:18:03.509Z,21.48
2023-02-15T16:22:12.766Z,19.08
2023-02-15T16:26:32.751Z,19.02
2023-02-15T16:30:37.418Z,20.08
2023-02-15T16:34:39.136Z,16.95
2023-02-15T16:38:43.995Z,17.30
2023-02-15T16:42:45.689Z,16.75
2023-02-15T16:46:51.647Z,21.33
2023-02-15T16:50:56.674Z,20.62
2023-02-15T16:55:01.214Z,24.35
2023-02-15T16:59:04.172Z,18.48
2023-02-15T17:03:14.683Z,20.30
2023-02-15T17:07:19.808Z,19.98
2023-02-15T17:11:33.395Z,18.70
2023-02-15T17:15:37.511Z,20.12
2023-02-15T17:19:54.301Z,19.55
2023-02-15T17:24:01.221Z,18.73
2023-02-15T17:28:03.394Z,15.93
2023-02-15T17:32:12.845Z,15.20
2023-02-15T17:36:22.696Z,18.67
2023-02-15T17:40:27.056Z,17.00
2023-02-15T17:44:28.688Z,18.98
2023-02-15T17:48:37.953Z,19.58
2023-02-15T17:52:39.594Z,20.27
2023-02-15T17:56:41.524Z,17.27
2023-02-15T18:01:06.259Z,20.15
2023-02-15T18:05:32.454Z,17.37
2023-02-15T18:09:52.796Z,13.95
2023-02-15T18:13:56.730Z,17.65
2023-02-15T18:17:58.522Z,14.68
2023-02-15T18:22:00.220Z,18.60
2023-02-15T18:26:01.859Z,21.85
2023-02-15T18:30:03.611Z,16.73
2023-02-15T18:34:06.709Z,21.08
2023-02-15T18:38:09.668Z,22.15
2023-02-15T18:42:19.566Z,19.00
2023-02-15T18:46:21.787Z,19.92
2023-02-15T18:50:26.994Z,17.30
2023-02-15T18:54:28.750Z,19.40
2023-02-15T18:58:30.476Z,16.95
2023-02-15T19:02:32.353Z,18.45
2023-02-15T19:06:34.099Z,22.52
2023-02-15T19:10:36.128Z,16.85
2023-02-15T19:14:37.822Z,18.85
2023-02-15T19:18:39.441Z,19.15
2023-02-15T19:22:41.220Z,22.00
2023-02-15T19:26:45.931Z,20.85
2023-02-15T19:30:47.864Z,23.92
2023-02-15T19:34:49.511Z,20.52
2023-02-15T19:38:54.469Z,23.80
2023-02-15T19:42:56.950Z,22.52
2023-02-15T19:46:58.665Z,20.98
2023-02-15T19:51:00.585Z,23.73
2023-02-15T19:55:02.222Z,23.48
2023-02-15T19:59:03.837Z,22.02
2023-02-15T20:03:05.853Z,25.15
2023-02-15T20:07:26.960Z,24.67
2023-02-15T20:11:28.573Z,22.13
2023-02-15T20:15:32.380Z,20.90
2023-02-15T20:19:34.085Z,24.12
2023-02-15T20:23:36.190Z,25.90
2023-02-15T20:27:38.010Z,21.30
2023-02-15T20:31:39.913Z,23.35
2023-02-15T20:35:43.123Z,20.27
2023-02-15T20:39:44.766Z,21.62
2023-02-15T20:43:46.471Z,23.77
2023-02-15T20:47:49.948Z,24.70
2023-02-15T20:51:53.707Z,21.17
2023-02-15T20:55:55.910Z,20.65
2023-02-15T20:59:57.688Z,23.75
2023-02-15T21:03:59.445Z,22.42
2023-02-15T21:08:01.643Z,20.98
2023-02-15T21:12:03.542Z,24.23
2023-02-15T21:16:05.563Z,23.62
2023-02-15T21:20:13.973Z,24.58
2023-02-15T21:24:20.101Z,23.05
2023-02-15T21:28:27.072Z,25.85
2023-02-15T21:32:28.822Z,24.50
2023-02-15T21:36:30.590Z,25.12
2023-02-15T21:40:32.825Z,24.63
2023-02-15T21:44:53.029Z,24.55
2023-02-15T21:48:54.666Z,25.83
2023-02-15T21:52:56.913Z,24.63
2023-02-15T21:57:00.559Z,23.42
2023-02-15T22:01:03.024Z,25.27
2023-02-15T22:05:16.412Z,24.25
2023-02-15T22:09:20.801Z,24.95
2023-02-15T22:13:31.708Z,26.67
2023-02-15T22:17:34.457Z,26.55
2023-02-15T22:21:36.120Z,25.45
2023-02-15T22:25:37.994Z,27.30
2023-02-15T22:29:39.628Z,25.05
2023-02-15T22:33:41.317Z,24.50
2023-02-15T22:37:42.911Z,28.08
2023-02-15T22:41:44.530Z,27.45
2023-02-15T22:45:46.304Z,25.65
2023-02-15T22:49:48.402Z,29.25
2023-02-15T22:53:53.766Z,27.08
2023-02-15T22:57:57.098Z,27.10
2023-02-15T23:01:58.806Z,25.95
2023-02-15T23:06:00.480Z,24.83
2023-02-15T23:10:02.170Z,30.17
2023-02-15T23:14:04.210Z,28.00
2023-02-15T23:18:19.790Z,28.80
2023-02-15T23:22:21.457Z,31.10
2023-02-15T23:26:27.514Z,29.30
2023-02-15T23:30:29.231Z,29.75
2023-02-15T23:34:30.952Z,28.40
2023-02-15T23:38:32.962Z,26.58
2023-02-15T23:42:35.771Z,25.15
2023-02-15T23:46:45.875Z,28.90
2023-02-15T23:50:47.534Z,26.52
2023-02-15T23:54:49.173Z,36.33
2023-02-15T23:58:50.943Z,29.73
